Time;durP1;ratioP1;P1;durP2;ratioP2;P2;SDS_P1;SDS_P2;PMS_P1;PMS_P2;Temp;Humidity;BMP_temperature;BMP_pressure;BME280_temperature;BME280_humidity;BME280_pressure;Samples;Min_cycle;Max_cycle;Signal;HPM_P1;HPM_P2
2021/09/05 00:01:36;;;;;;;1.95;1.25;;;7.00;99.90;;;;;;4972942;28;20545;-68
2021/09/05 00:04:03;;;;;;;1.88;1.77;;;7.10;99.90;;;;;;4971699;28;20068;-69
2021/09/05 00:06:31;;;;;;;1.80;1.00;;;7.10;99.90;;;;;;4972942;28;20077;-67
2021/09/05 00:08:58;;;;;;;5.22;1.23;;;7.10;99.90;;;;;;4972699;28;20390;-71
2021/09/05 00:11:25;;;;;;;1.75;1.17;;;7.00;99.90;;;;;;4972455;28;20047;-70
2021/09/05 00:13:52;;;;;;;1.73;1.08;;;7.10;99.90;;;;;;4971012;28;20054;-65
2021/09/05 00:16:19;;;;;;;1.90;1.20;;;7.10;99.90;;;;;;4972683;28;20165;-70
2021/09/05 00:18:47;;;;;;;2.83;1.00;;;7.10;99.90;;;;;;4972795;28;20097;-66
2021/09/05 00:21:14;;;;;;;2.35;0.90;;;7.10;99.90;;;;;;4972066;28;20054;-71
2021/09/05 00:23:41;;;;;;;0.80;0.63;;;7.10;99.90;;;;;;4972553;28;20121;-68
2021/09/05 00:26:09;;;;;;;1.70;0.98;;;7.20;99.90;;;;;;4971080;28;20078;-67
2021/09/05 00:28:36;;;;;;;3.20;0.98;;;7.20;99.90;;;;;;4972254;28;20077;-66
2021/09/05 00:31:03;;;;;;;2.60;1.17;;;7.20;99.90;;;;;;4987568;28;20046;-67
2021/09/05 00:33:30;;;;;;;2.58;1.15;;;7.20;99.90;;;;;;4972521;28;20131;-65
2021/09/05 00:36:02;;;;;;;2.88;1.00;;;7.20;99.90;;;;;;4971218;28;20125;-65
2021/09/05 00:38:29;;;;;;;1.02;0.80;;;7.20;99.90;;;;;;4973061;28;20134;-68
2021/09/05 00:40:56;;;;;;;2.88;1.13;;;7.20;99.90;;;;;;4972525;28;20138;-70
2021/09/05 00:43:23;;;;;;;2.70;1.20;;;7.20;99.90;;;;;;4972560;28;20054;-67
2021/09/05 00:45:50;;;;;;;1.65;1.52;;;7.30;99.90;;;;;;4969394;28;20183;-66
2021/09/05 00:48:17;;;;;;;1.23;0.73;;;7.30;99.90;;;;;;4972922;28;20514;-66
2021/09/05 00:50:44;;;;;;;6.28;1.23;;;7.30;99.90;;;;;;4972002;28;20051;-71
2021/09/05 00:53:16;;;;;;;3.58;1.08;;;7.30;99.90;;;;;;4971318;28;20532;-65
2021/09/05 00:55:44;;;;;;;2.10;0.98;;;7.40;99.90;;;;;;4984768;28;20073;-68
2021/09/05 00:58:14;;;;;;;3.40;1.13;;;7.40;99.90;;;;;;4971555;28;20051;-67
2021/09/05 01:00:44;;;;;;;2.03;0.88;;;7.40;99.90;;;;;;4971863;28;20435;-72
2021/09/05 01:03:12;;;;;;;1.45;0.88;;;7.50;99.90;;;;;;4980266;23;20071;-67
2021/09/05 01:05:40;;;;;;;3.10;1.23;;;7.50;99.90;;;;;;4971889;28;20091;-67
2021/09/05 01:08:08;;;;;;;2.72;1.13;;;7.50;99.90;;;;;;4969520;28;20355;-68
2021/09/05 01:10:35;;;;;;;4.35;2.65;;;7.50;99.90;;;;;;4970999;28;20046;-67
2021/09/05 01:13:03;;;;;;;2.60;0.73;;;7.60;99.90;;;;;;4986172;28;20050;-68
2021/09/05 01:15:30;;;;;;;2.90;1.10;;;7.60;99.90;;;;;;4971165;28;20054;-67
2021/09/05 01:18:02;;;;;;;2.17;1.15;;;7.60;99.90;;;;;;4968250;28;20051;-67
2021/09/05 01:20:58;;;;;;;2.08;1.42;;;7.60;99.90;;;;;;4968846;28;20050;-66
2021/09/05 01:23:43;;;;;;;1.27;1.00;;;7.60;99.90;;;;;;4970010;28;20083;-68
2021/09/05 01:26:31;;;;;;;1.30;0.80;;;7.60;99.90;;;;;;4986122;28;20129;-67
2021/09/05 01:29:27;;;;;;;1.60;1.00;;;7.60;99.90;;;;;;4935202;28;20047;-68
2021/09/05 01:32:20;;;;;;;1.27;1.17;;;7.50;99.90;;;;;;4968518;28;20141;-66
2021/09/05 01:35:09;;;;;;;2.10;1.50;;;7.50;99.90;;;;;;4969389;28;20051;-67
2021/09/05 01:38:05;;;;;;;1.65;0.82;;;7.40;99.90;;;;;;4968691;28;20074;-66
2021/09/05 01:40:55;;;;;;;2.40;1.10;;;7.40;99.90;;;;;;4971204;28;20458;-68
2021/09/05 01:44:02;;;;;;;1.30;1.15;;;7.30;99.90;;;;;;4969035;28;20051;-68
2021/09/05 01:46:52;;;;;;;1.30;0.95;;;7.20;99.90;;;;;;4964473;28;20416;-66
2021/09/05 01:49:39;;;;;;;1.73;1.00;;;7.10;99.90;;;;;;4969736;28;20074;-66
2021/09/05 01:52:21;;;;;;;2.20;1.00;;;7.10;99.90;;;;;;4984134;28;20470;-67
2021/09/05 01:55:07;;;;;;;1.77;0.80;;;7.10;99.90;;;;;;4971151;28;20073;-66
2021/09/05 01:57:54;;;;;;;4.07;1.02;;;7.00;99.90;;;;;;4969081;28;20069;-68
2021/09/05 02:00:40;;;;;;;1.30;0.60;;;7.00;99.90;;;;;;4971209;28;20058;-66
2021/09/05 02:03:15;;;;;;;0.85;0.85;;;6.90;99.90;;;;;;4986166;28;20248;-67
2021/09/05 02:06:01;;;;;;;0.52;0.52;;;6.90;99.90;;;;;;4970053;28;20061;-67
2021/09/05 02:08:47;;;;;;;3.15;0.93;;;6.90;99.90;;;;;;4971399;28;20050;-68
2021/09/05 02:11:35;;;;;;;1.40;1.15;;;6.80;99.90;;;;;;4986247;28;20620;-68
2021/09/05 02:14:26;;;;;;;1.15;1.08;;;6.80;99.90;;;;;;4959837;28;20054;-66
2021/09/05 02:17:10;;;;;;;1.73;0.95;;;6.80;99.90;;;;;;4986116;28;20051;-66
2021/09/05 02:19:50;;;;;;;2.65;1.00;;;6.80;99.90;;;;;;4984615;28;20054;-66
2021/09/05 02:22:55;;;;;;;2.70;1.10;;;6.80;99.90;;;;;;4986095;28;20051;-66
2021/09/05 02:25:47;;;;;;;1.67;0.88;;;6.70;99.90;;;;;;4984350;28;20050;-67
2021/09/05 02:28:42;;;;;;;1.00;0.80;;;6.70;99.90;;;;;;4970130;28;20455;-66
2021/09/05 02:31:32;;;;;;;1.13;1.02;;;6.70;99.90;;;;;;4970886;28;20396;-68
2021/09/05 02:34:25;;;;;;;1.55;1.00;;;6.70;99.90;;;;;;4968654;28;20039;-67
2021/09/05 02:37:27;;;;;;;3.05;1.67;;;6.70;99.90;;;;;;4970665;28;20054;-66
2021/09/05 02:40:29;;;;;;;9.20;2.85;;;6.70;99.90;;;;;;4891161;29;20086;-67
2021/09/05 02:43:19;;;;;;;1.15;0.98;;;6.70;99.90;;;;;;4964216;28;20051;-67
2021/09/05 02:46:05;;;;;;;1.60;0.90;;;6.60;99.90;;;;;;4988441;28;20046;-66
2021/09/05 02:48:54;;;;;;;2.10;1.10;;;6.60;99.90;;;;;;4974824;28;20046;-68
2021/09/05 02:51:42;;;;;;;1.92;0.88;;;6.50;99.90;;;;;;4975055;28;20077;-66
2021/09/05 02:54:38;;;;;;;3.30;0.98;;;6.50;99.90;;;;;;4973444;28;20046;-67
2021/09/05 02:57:31;;;;;;;1.40;0.95;;;6.50;99.90;;;;;;4973337;28;20481;-67
2021/09/05 03:00:17;;;;;;;0.60;0.60;;;6.50;99.90;;;;;;4973242;28;20464;-67
2021/09/05 03:03:04;;;;;;;3.13;0.85;;;6.50;99.90;;;;;;4989240;28;20355;-68
2021/09/05 03:05:49;;;;;;;2.05;0.98;;;6.50;99.90;;;;;;4973285;28;20130;-67
2021/09/05 03:08:35;;;;;;;0.85;0.70;;;6.50;99.90;;;;;;4989601;28;20130;-68
2021/09/05 03:11:22;;;;;;;1.05;0.93;;;6.50;99.90;;;;;;4989040;28;20057;-67
2021/09/05 03:14:20;;;;;;;1.52;1.00;;;6.50;99.90;;;;;;4987428;28;20043;-67
2021/09/05 03:17:16;;;;;;;1.92;0.70;;;6.50;99.90;;;;;;4938030;28;20051;-68
2021/09/05 03:19:58;;;;;;;1.15;1.05;;;6.50;99.90;;;;;;4986971;28;20133;-68
2021/09/05 03:23:03;;;;;;;1.05;0.80;;;6.50;99.90;;;;;;4973575;28;20051;-67
2021/09/05 03:25:48;;;;;;;2.05;0.73;;;6.50;99.90;;;;;;4986877;28;20061;-68
2021/09/05 03:28:47;;;;;;;1.88;1.77;;;6.50;99.90;;;;;;4973561;28;20376;-67
2021/09/05 03:31:32;;;;;;;0.98;0.95;;;6.50;99.90;;;;;;4986174;28;20054;-66
2021/09/05 03:34:22;;;;;;;1.38;1.27;;;6.50;99.90;;;;;;4971248;28;20436;-67
2021/09/05 03:37:15;;;;;;;0.60;0.60;;;6.50;99.90;;;;;;4972225;28;20050;-66
2021/09/05 03:39:56;;;;;;;1.63;1.30;;;6.50;99.90;;;;;;4986784;28;20087;-68
2021/09/05 03:42:45;;;;;;;1.02;0.90;;;6.50;99.90;;;;;;4973095;28;20043;-67
2021/09/05 03:45:35;;;;;;;1.77;0.93;;;6.50;99.90;;;;;;4974187;28;20070;-67
2021/09/05 03:48:32;;;;;;;4.38;0.60;;;6.50;99.90;;;;;;4972017;28;20525;-66
2021/09/05 03:51:06;;;;;;;1.75;0.82;;;6.50;99.90;;;;;;4988113;28;20154;-67
2021/09/05 03:53:37;;;;;;;1.02;0.95;;;6.50;99.90;;;;;;4987916;28;20085;-66
2021/09/05 03:56:04;;;;;;;3.03;0.80;;;6.50;99.90;;;;;;4985547;28;20438;-66
2021/09/05 03:58:33;;;;;;;2.75;1.02;;;6.50;99.90;;;;;;4987748;28;20101;-67
2021/09/05 04:01:00;;;;;;;1.70;1.00;;;6.50;99.90;;;;;;4987910;28;20050;-68
2021/09/05 04:03:29;;;;;;;1.10;0.70;;;6.60;99.90;;;;;;4987726;28;20456;-68
2021/09/05 04:05:56;;;;;;;1.58;0.90;;;6.60;99.90;;;;;;4971866;28;20161;-67
2021/09/05 04:08:31;;;;;;;1.25;1.13;;;6.60;99.90;;;;;;4987574;28;20098;-67
2021/09/05 04:10:58;;;;;;;1.67;1.13;;;6.60;99.90;;;;;;4972448;28;20051;-67
2021/09/05 04:13:25;;;;;;;0.82;0.82;;;6.70;99.90;;;;;;4972875;28;20078;-67
2021/09/05 04:15:52;;;;;;;1.88;1.73;;;6.70;99.90;;;;;;4971030;28;20074;-67
2021/09/05 04:18:19;;;;;;;1.20;0.70;;;6.70;99.90;;;;;;4972421;28;20441;-67
2021/09/05 04:20:46;;;;;;;2.17;1.90;;;6.70;99.90;;;;;;4972311;28;20063;-68
2021/09/05 04:23:13;;;;;;;1.92;1.48;;;6.70;99.90;;;;;;4987009;28;20074;-66
2021/09/05 04:25:40;;;;;;;1.30;1.20;;;6.70;99.90;;;;;;4972581;28;20569;-67
2021/09/05 04:28:07;;;;;;;1.83;1.63;;;6.70;99.90;;;;;;4970699;28;20043;-66
2021/09/05 04:30:34;;;;;;;1.77;1.02;;;6.60;99.90;;;;;;4972257;28;20073;-67
2021/09/05 04:33:01;;;;;;;1.98;1.33;;;6.60;99.90;;;;;;4972184;28;20051;-68
2021/09/05 04:35:28;;;;;;;3.58;1.20;;;6.60;99.90;;;;;;4972275;28;20074;-68
2021/09/05 04:37:55;;;;;;;3.42;1.58;;;6.60;99.90;;;;;;4970783;28;20054;-68
2021/09/05 04:40:22;;;;;;;2.25;1.10;;;6.60;99.90;;;;;;4971867;28;20066;-68
2021/09/05 04:42:49;;;;;;;3.90;1.02;;;6.60;99.90;;;;;;4971480;28;20047;-68
2021/09/05 04:45:16;;;;;;;4.88;1.08;;;6.60;99.90;;;;;;4972464;28;20414;-67
2021/09/05 04:47:42;;;;;;;2.45;1.00;;;6.70;99.90;;;;;;4971988;28;20066;-66
2021/09/05 04:50:09;;;;;;;2.08;1.40;;;6.70;99.90;;;;;;4970486;28;20047;-68
2021/09/05 04:52:36;;;;;;;2.65;1.30;;;6.70;99.90;;;;;;4971311;28;20101;-68
2021/09/05 04:55:04;;;;;;;2.00;0.80;;;6.70;99.90;;;;;;4972047;28;20055;-66
2021/09/05 04:57:31;;;;;;;2.05;0.90;;;6.70;99.90;;;;;;4972385;28;20233;-67
2021/09/05 04:59:58;;;;;;;1.10;1.00;;;6.80;99.90;;;;;;4970602;28;20175;-66
2021/09/05 05:02:25;;;;;;;3.25;1.30;;;6.80;99.90;;;;;;4972054;28;20074;-67
2021/09/05 05:04:52;;;;;;;1.27;1.15;;;6.80;99.90;;;;;;4971836;28;20055;-67
2021/09/05 05:07:19;;;;;;;1.23;1.13;;;6.80;99.90;;;;;;4971777;28;20068;-66
2021/09/05 05:09:46;;;;;;;1.35;0.90;;;6.80;99.90;;;;;;4970547;28;20091;-67
2021/09/05 05:12:13;;;;;;;1.77;1.20;;;6.80;99.90;;;;;;4972005;28;20070;-66
2021/09/05 05:14:40;;;;;;;2.15;1.13;;;6.80;99.90;;;;;;4971510;28;20366;-67
2021/09/05 05:17:08;;;;;;;2.88;0.98;;;6.90;99.90;;;;;;4971283;28;20047;-67
2021/09/05 05:19:35;;;;;;;2.25;1.50;;;6.90;99.90;;;;;;4971807;28;20058;-66
2021/09/05 05:22:02;;;;;;;1.80;1.13;;;7.00;99.90;;;;;;4970069;28;20074;-67
2021/09/05 05:24:29;;;;;;;1.42;0.98;;;7.00;99.90;;;;;;4971072;28;20047;-67
2021/09/05 05:26:56;;;;;;;2.10;1.10;;;7.00;99.90;;;;;;4971281;28;20050;-66
2021/09/05 05:29:23;;;;;;;1.73;0.88;;;7.10;99.90;;;;;;4971569;28;20117;-67
2021/09/05 05:31:50;;;;;;;1.98;1.08;;;7.20;99.90;;;;;;4970163;28;20581;-66
2021/09/05 05:34:17;;;;;;;1.40;1.30;;;7.20;99.90;;;;;;4971559;28;20047;-67
2021/09/05 05:36:44;;;;;;;2.60;1.27;;;7.30;99.90;;;;;;4971198;28;20099;-67
2021/09/05 05:39:11;;;;;;;3.15;1.42;;;7.40;99.90;;;;;;4971577;28;20074;-68
2021/09/05 05:41:38;;;;;;;5.68;1.02;;;7.50;99.90;;;;;;4971344;28;20105;-66
2021/09/05 05:44:05;;;;;;;1.50;0.95;;;7.60;99.90;;;;;;4970196;28;20506;-66
2021/09/05 05:46:36;;;;;;;3.33;1.98;;;7.70;99.90;;;;;;4971992;28;20049;-66
2021/09/05 05:49:03;;;;;;;1.25;1.15;;;7.90;99.90;;;;;;4972110;28;20478;-66
2021/09/05 05:51:30;;;;;;;1.45;0.90;;;8.00;99.90;;;;;;4971247;28;20047;-67
2021/09/05 05:53:57;;;;;;;4.07;1.02;;;8.10;99.90;;;;;;4969706;28;20500;-66
2021/09/05 05:56:24;;;;;;;0.65;0.63;;;8.20;99.90;;;;;;4971067;28;20526;-66
2021/09/05 05:58:51;;;;;;;2.60;1.13;;;8.40;99.90;;;;;;4970957;28;20070;-67
2021/09/05 06:01:18;;;;;;;1.48;0.98;;;8.50;99.90;;;;;;4971445;28;20470;-66
2021/09/05 06:03:53;;;;;;;1.52;1.40;;;8.60;99.90;;;;;;4984076;28;20086;-66
2021/09/05 06:06:20;;;;;;;4.20;1.00;;;8.80;99.90;;;;;;4971340;28;20134;-68
2021/09/05 06:08:46;;;;;;;0.80;0.65;;;8.90;99.90;;;;;;4970940;28;20101;-66
2021/09/05 06:11:13;;;;;;;3.80;0.90;;;9.00;99.90;;;;;;4985449;28;20051;-66
2021/09/05 06:13:40;;;;;;;3.55;1.40;;;9.20;99.90;;;;;;4970955;28;20043;-67
2021/09/05 06:16:07;;;;;;;5.03;1.27;;;9.40;99.90;;;;;;4969371;28;20050;-67
2021/09/05 06:18:34;;;;;;;1.65;0.52;;;9.50;99.90;;;;;;4970415;28;20049;-67
2021/09/05 06:21:02;;;;;;;2.78;0.88;;;9.70;99.90;;;;;;4971028;28;20101;-67
2021/09/05 06:23:29;;;;;;;0.98;0.70;;;9.80;99.90;;;;;;4970815;28;20419;-66
2021/09/05 06:25:56;;;;;;;1.50;0.88;;;10.00;99.90;;;;;;4969440;28;20448;-67
2021/09/05 06:28:23;;;;;;;1.65;0.85;;;10.20;99.90;;;;;;4970884;28;20098;-67
2021/09/05 06:30:50;;;;;;;0.73;0.50;;;10.50;99.90;;;;;;4971114;28;20078;-66
2021/09/05 06:33:17;;;;;;;1.58;0.70;;;10.60;99.90;;;;;;4971137;28;20043;-67
2021/09/05 06:35:44;;;;;;;1.17;0.93;;;10.70;99.90;;;;;;4969638;28;20079;-66
2021/09/05 06:38:11;;;;;;;2.35;0.80;;;10.80;99.90;;;;;;4970354;28;20481;-67
2021/09/05 06:40:38;;;;;;;2.92;1.08;;;11.10;99.90;;;;;;4971558;28;20401;-67
2021/09/05 06:43:05;;;;;;;2.15;0.60;;;11.20;99.90;;;;;;4971099;28;20097;-67
2021/09/05 06:45:32;;;;;;;2.83;0.50;;;11.30;99.90;;;;;;4969361;28;20047;-67
2021/09/05 06:47:59;;;;;;;1.85;0.90;;;11.50;99.90;;;;;;4972132;28;20047;-66
2021/09/05 06:50:26;;;;;;;0.77;0.50;;;11.60;99.90;;;;;;4986623;28;20139;-66
2021/09/05 06:52:53;;;;;;;0.32;0.32;;;11.70;99.90;;;;;;4971882;28;20034;-67
2021/09/05 06:55:20;;;;;;;1.45;0.63;;;11.80;99.90;;;;;;4972515;28;20430;-67
2021/09/05 06:57:48;;;;;;;0.90;0.55;;;11.90;99.90;;;;;;4972563;28;20526;-66
2021/09/05 07:00:16;;;;;;;3.03;0.95;;;12.00;99.90;;;;;;4972513;28;20039;-67
2021/09/05 07:02:43;;;;;;;3.78;2.35;;;12.00;99.90;;;;;;4972248;28;20042;-66
2021/09/05 07:05:11;;;;;;;0.65;0.60;;;12.00;99.90;;;;;;4971799;28;20088;-67
2021/09/05 07:07:42;;;;;;;1.17;0.55;;;12.10;99.90;;;;;;4971965;28;20047;-66
2021/09/05 07:10:10;;;;;;;2.25;0.57;;;12.20;99.90;;;;;;4972464;28;20500;-66
2021/09/05 07:12:42;;;;;;;1.25;0.77;;;12.30;99.90;;;;;;4972116;28;20122;-67
2021/09/05 07:15:10;;;;;;;0.50;0.50;;;12.40;99.90;;;;;;4972334;28;20043;-67
2021/09/05 07:17:37;;;;;;;1.13;0.80;;;12.50;99.90;;;;;;4972151;28;20086;-66
2021/09/05 07:20:04;;;;;;;1.85;1.40;;;12.60;99.90;;;;;;4972372;28;20066;-66
2021/09/05 07:22:33;;;;;;;1.38;0.73;;;12.60;99.90;;;;;;4972029;28;20109;-67
2021/09/05 07:25:06;;;;;;;0.50;0.35;;;12.60;99.90;;;;;;4972506;28;20043;-67
2021/09/05 07:27:33;;;;;;;2.28;0.65;;;12.60;99.90;;;;;;4972336;28;20497;-67
2021/09/05 07:30:00;;;;;;;1.00;0.70;;;12.60;99.90;;;;;;4973839;28;20035;-68
2021/09/05 07:32:27;;;;;;;1.02;0.88;;;12.80;99.90;;;;;;4975211;28;20071;-67
2021/09/05 07:34:54;;;;;;;0.45;0.40;;;12.70;99.90;;;;;;4975633;28;20089;-66
2021/09/05 07:37:26;;;;;;;2.17;0.60;;;12.70;99.90;;;;;;4974210;28;20143;-66
2021/09/05 07:39:53;;;;;;;1.38;0.45;;;12.80;99.90;;;;;;4975489;28;20117;-69
2021/09/05 07:42:20;;;;;;;1.83;0.52;;;12.80;99.90;;;;;;4974855;28;20091;-67
2021/09/05 07:44:46;;;;;;;0.98;0.40;;;12.80;99.90;;;;;;4975488;28;20097;-67
2021/09/05 07:47:13;;;;;;;1.98;0.57;;;12.80;99.90;;;;;;4974832;28;20047;-66
2021/09/05 07:49:40;;;;;;;1.60;1.23;;;12.90;99.90;;;;;;4974780;28;20105;-67
2021/09/05 07:52:07;;;;;;;0.80;0.50;;;12.90;99.90;;;;;;4975418;28;20043;-67
2021/09/05 07:54:34;;;;;;;2.17;0.70;;;12.90;99.90;;;;;;4974893;28;20074;-67
2021/09/05 07:57:01;;;;;;;0.90;0.60;;;13.00;99.90;;;;;;4975083;28;20070;-67
2021/09/05 07:59:28;;;;;;;4.20;1.10;;;13.10;99.90;;;;;;4974675;28;20087;-66
2021/09/05 08:01:54;;;;;;;1.45;0.60;;;13.10;99.90;;;;;;4974523;28;20509;-67
2021/09/05 08:04:22;;;;;;;1.38;0.68;;;13.10;99.90;;;;;;4974757;28;20050;-67
2021/09/05 08:06:49;;;;;;;2.53;0.52;;;13.20;99.90;;;;;;4974479;28;20123;-67
2021/09/05 08:09:15;;;;;;;0.70;0.50;;;13.20;99.90;;;;;;4974445;28;20047;-66
2021/09/05 08:11:42;;;;;;;1.58;0.73;;;13.30;99.90;;;;;;4973615;28;20054;-66
2021/09/05 08:14:09;;;;;;;1.00;0.70;;;13.30;99.90;;;;;;4974324;28;20051;-68
2021/09/05 08:16:38;;;;;;;2.15;1.30;;;13.30;99.90;;;;;;4974232;28;20039;-66
2021/09/05 08:19:06;;;;;;;2.17;1.05;;;13.40;99.90;;;;;;4974331;28;20079;-65
2021/09/05 08:21:33;;;;;;;1.08;0.88;;;13.30;99.90;;;;;;4974012;28;20078;-65
2021/09/05 08:24:00;;;;;;;3.47;0.70;;;13.40;99.90;;;;;;4974316;28;20401;-65
2021/09/05 08:26:26;;;;;;;2.45;0.93;;;13.50;99.90;;;;;;4974025;28;20047;-65
2021/09/05 08:28:53;;;;;;;1.42;0.70;;;13.60;99.90;;;;;;4973758;28;20051;-65
2021/09/05 08:31:20;;;;;;;1.17;0.85;;;13.60;99.90;;;;;;4974044;28;20417;-65
2021/09/05 08:33:47;;;;;;;1.20;0.50;;;13.60;99.90;;;;;;4973915;28;20489;-65
2021/09/05 08:36:14;;;;;;;1.13;0.68;;;13.60;99.90;;;;;;4974238;28;20046;-65
2021/09/05 08:38:41;;;;;;;1.55;0.57;;;13.60;99.90;;;;;;4973768;28;20496;-65
2021/09/05 08:41:08;;;;;;;2.05;1.20;;;13.50;99.90;;;;;;4973238;28;20077;-66
2021/09/05 08:43:37;;;;;;;1.40;0.95;;;13.60;99.90;;;;;;4974282;28;20069;-66
2021/09/05 08:46:04;;;;;;;1.05;0.60;;;13.70;99.90;;;;;;4974100;28;20334;-66
2021/09/05 08:48:32;;;;;;;1.25;0.70;;;13.70;99.90;;;;;;4973613;28;20484;-65
2021/09/05 08:50:59;;;;;;;2.15;0.93;;;13.70;99.90;;;;;;4973997;28;20138;-66
2021/09/05 08:53:26;;;;;;;1.33;0.50;;;13.80;99.90;;;;;;4974084;28;20035;-65
2021/09/05 08:55:53;;;;;;;0.68;0.40;;;13.90;99.90;;;;;;4973688;28;20054;-66
2021/09/05 08:58:20;;;;;;;3.80;0.82;;;13.90;99.90;;;;;;4974347;28;20501;-70
2021/09/05 09:00:46;;;;;;;0.38;0.38;;;14.00;99.90;;;;;;4973589;28;20066;-65
2021/09/05 09:03:22;;;;;;;1.33;0.80;;;14.10;99.90;;;;;;4973374;28;20103;-66
2021/09/05 09:05:53;;;;;;;1.77;0.77;;;14.00;99.90;;;;;;4973595;28;20082;-65
2021/09/05 09:08:21;;;;;;;2.38;0.68;;;14.10;99.90;;;;;;4973742;28;20050;-66
2021/09/05 09:10:49;;;;;;;1.27;0.70;;;14.20;99.90;;;;;;4973704;28;20050;-64
2021/09/05 09:13:42;;;;;;;3.33;0.60;;;14.30;99.90;;;;;;4973511;28;20090;-65
2021/09/05 09:16:13;;;;;;;1.25;0.60;;;14.30;99.90;;;;;;4974781;28;20485;-64
2021/09/05 09:18:43;;;;;;;0.77;0.47;;;14.40;99.90;;;;;;4973530;28;20533;-65
2021/09/05 09:21:12;;;;;;;1.25;0.90;;;14.40;99.90;;;;;;4973533;28;20192;-65
2021/09/05 09:23:39;;;;;;;0.88;0.65;;;14.30;99.90;;;;;;4973609;28;20077;-66
2021/09/05 09:26:15;;;;;;;1.80;0.95;;;14.30;99.90;;;;;;4973080;28;20050;-67
2021/09/05 09:28:50;;;;;;;1.02;0.40;;;14.40;99.90;;;;;;4973569;28;20042;-65
2021/09/05 09:31:23;;;;;;;2.75;1.42;;;14.50;99.90;;;;;;4973329;28;20038;-65
2021/09/05 09:33:53;;;;;;;1.40;0.70;;;14.40;99.90;;;;;;4972985;28;20051;-66
2021/09/05 09:36:25;;;;;;;0.50;0.40;;;14.50;99.90;;;;;;4973026;28;20051;-65
2021/09/05 09:38:55;;;;;;;1.20;0.68;;;14.50;99.90;;;;;;4972161;28;20563;-66
2021/09/05 09:41:22;;;;;;;1.38;0.68;;;14.50;99.90;;;;;;4972821;28;20573;-65
2021/09/05 09:43:54;;;;;;;0.90;0.40;;;14.50;99.90;;;;;;4972721;28;20046;-68
2021/09/05 09:46:26;;;;;;;4.32;0.52;;;14.60;99.90;;;;;;4972831;28;20094;-65
2021/09/05 09:48:55;;;;;;;1.10;0.63;;;14.50;99.90;;;;;;4973067;28;20074;-66
2021/09/05 09:51:22;;;;;;;1.20;0.90;;;14.70;99.90;;;;;;4972198;28;20484;-65
2021/09/05 09:53:51;;;;;;;2.80;0.80;;;14.70;99.90;;;;;;4971663;28;20038;-66
2021/09/05 09:56:22;;;;;;;1.40;0.93;;;14.50;99.90;;;;;;4972510;28;20051;-66
2021/09/05 09:58:54;;;;;;;1.05;0.73;;;14.60;99.90;;;;;;4972294;28;20070;-65
2021/09/05 10:01:22;;;;;;;0.70;0.57;;;14.70;99.90;;;;;;4972678;28;20042;-65
2021/09/05 10:03:55;;;;;;;1.05;0.63;;;14.90;99.90;;;;;;4972008;28;20051;-67
2021/09/05 10:06:27;;;;;;;1.35;0.68;;;14.90;99.90;;;;;;4972394;28;20042;-67
2021/09/05 10:09:05;;;;;;;2.83;1.77;;;15.00;99.90;;;;;;4973095;28;20058;-68
2021/09/05 10:11:36;;;;;;;1.63;0.93;;;15.10;99.90;;;;;;4972940;28;20047;-66
2021/09/05 10:14:04;;;;;;;0.90;0.80;;;15.10;99.90;;;;;;4972251;28;20042;-65
2021/09/05 10:16:31;;;;;;;0.63;0.63;;;15.00;99.90;;;;;;4972019;28;20058;-68
2021/09/05 10:19:04;;;;;;;3.70;0.60;;;15.00;99.90;;;;;;4971886;28;20054;-67
2021/09/05 10:21:34;;;;;;;0.82;0.82;;;14.90;99.90;;;;;;4972171;28;20110;-65
2021/09/05 10:24:01;;;;;;;1.73;0.60;;;15.10;99.90;;;;;;4972014;28;20107;-66
2021/09/05 10:26:28;;;;;;;1.85;0.55;;;15.00;99.90;;;;;;4972048;28;20074;-68
2021/09/05 10:28:58;;;;;;;0.90;0.55;;;15.10;99.90;;;;;;4971840;28;20085;-66
2021/09/05 10:31:27;;;;;;;2.22;0.90;;;15.00;99.90;;;;;;4972050;28;20437;-66
2021/09/05 10:33:55;;;;;;;0.90;0.70;;;15.00;99.90;;;;;;4971681;28;20089;-69
2021/09/05 10:36:25;;;;;;;0.95;0.52;;;15.10;99.90;;;;;;4971905;28;20142;-66
2021/09/05 10:39:12;;;;;;;2.20;0.75;;;15.10;99.90;;;;;;4972384;28;20438;-67
2021/09/05 10:41:50;;;;;;;2.58;0.80;;;15.20;99.90;;;;;;4971648;28;20054;-66
2021/09/05 10:44:18;;;;;;;0.77;0.60;;;15.20;99.90;;;;;;4972132;28;20545;-67
2021/09/05 10:46:50;;;;;;;2.88;0.70;;;15.30;99.90;;;;;;4972031;28;20125;-66
2021/09/05 10:49:39;;;;;;;2.15;0.60;;;15.30;99.90;;;;;;4971574;28;20051;-67
2021/09/05 10:52:06;;;;;;;1.92;0.75;;;15.30;99.90;;;;;;4971877;28;20070;-66
2021/09/05 10:54:45;;;;;;;0.77;0.77;;;15.40;99.90;;;;;;4972156;28;20081;-67
2021/09/05 10:57:39;;;;;;;1.40;0.90;;;15.30;99.90;;;;;;4971903;28;20043;-66
2021/09/05 11:00:10;;;;;;;1.10;0.52;;;15.20;99.90;;;;;;4971630;28;20065;-70
2021/09/05 11:03:08;;;;;;;1.98;0.80;;;15.40;99.90;;;;;;4971773;28;20047;-67
2021/09/05 11:05:35;;;;;;;2.15;0.55;;;15.40;99.90;;;;;;4975326;28;20046;-66
2021/09/05 11:08:21;;;;;;;1.42;0.93;;;15.30;99.90;;;;;;4975248;28;20042;-67
2021/09/05 11:10:50;;;;;;;0.70;0.55;;;15.20;99.90;;;;;;4975301;28;20101;-66
2021/09/05 11:13:46;;;;;;;1.00;0.68;;;15.40;99.90;;;;;;4975300;28;20050;-66
2021/09/05 11:16:17;;;;;;;1.40;0.70;;;15.50;99.90;;;;;;4975340;28;20128;-69
2021/09/05 11:18:47;;;;;;;0.77;0.50;;;15.50;99.90;;;;;;4975628;28;20093;-66
2021/09/05 11:21:25;;;;;;;0.80;0.65;;;15.50;99.90;;;;;;4975026;28;20049;-66
2021/09/05 11:23:54;;;;;;;0.98;0.80;;;15.50;99.90;;;;;;4975414;28;20038;-67
2021/09/05 11:26:24;;;;;;;1.55;0.55;;;15.50;99.90;;;;;;4975398;28;20394;-68
2021/09/05 11:28:52;;;;;;;0.85;0.40;;;15.50;99.90;;;;;;4975100;28;20058;-70
2021/09/05 11:31:19;;;;;;;1.00;0.63;;;15.60;99.90;;;;;;4975140;28;20156;-68
2021/09/05 11:33:47;;;;;;;1.90;0.60;;;15.50;99.90;;;;;;4975339;28;20448;-67
2021/09/05 11:36:14;;;;;;;1.20;0.73;;;15.60;99.90;;;;;;4975004;28;20485;-68
2021/09/05 11:38:41;;;;;;;0.70;0.50;;;15.50;99.90;;;;;;4975111;28;20051;-66
2021/09/05 11:41:08;;;;;;;1.20;0.70;;;15.50;99.90;;;;;;4974683;28;20085;-68
2021/09/05 11:43:39;;;;;;;3.35;0.77;;;15.60;99.90;;;;;;4974598;28;20098;-69
2021/09/05 11:46:17;;;;;;;1.13;1.00;;;15.80;99.90;;;;;;4975035;28;20404;-69
2021/09/05 11:48:57;;;;;;;1.50;0.82;;;15.50;99.90;;;;;;4974497;28;20039;-66
2021/09/05 11:51:31;;;;;;;0.77;0.75;;;15.30;99.90;;;;;;4975424;28;20126;-67
2021/09/05 11:54:01;;;;;;;0.55;0.43;;;15.30;99.90;;;;;;4974243;28;20129;-67
2021/09/05 11:56:29;;;;;;;2.13;0.50;;;15.40;99.90;;;;;;4974147;28;20046;-69
2021/09/05 11:59:09;;;;;;;0.93;0.52;;;15.40;99.90;;;;;;4974135;28;20113;-67
2021/09/05 12:01:48;;;;;;;0.68;0.68;;;15.40;99.90;;;;;;4974534;28;20101;-67
2021/09/05 12:04:21;;;;;;;0.95;0.80;;;15.40;99.90;;;;;;4974222;28;20548;-67
2021/09/05 12:06:49;;;;;;;2.67;0.98;;;15.50;99.90;;;;;;4974294;28;20497;-67
2021/09/05 12:09:26;;;;;;;1.35;1.02;;;15.40;99.90;;;;;;4974182;28;20097;-67
2021/09/05 12:11:58;;;;;;;0.85;0.57;;;15.60;99.90;;;;;;4973909;28;20556;-67
2021/09/05 12:14:30;;;;;;;0.40;0.40;;;15.80;99.90;;;;;;4974032;28;20039;-67
2021/09/05 12:17:13;;;;;;;0.68;0.68;;;15.90;99.90;;;;;;4973260;28;20046;-65
2021/09/05 12:19:57;;;;;;;1.48;1.10;;;15.80;99.90;;;;;;4973820;28;20039;-66
2021/09/05 12:22:25;;;;;;;1.10;0.70;;;16.00;99.90;;;;;;4973933;28;20129;-66
2021/09/05 12:24:58;;;;;;;0.98;0.63;;;16.00;99.90;;;;;;4974021;28;20401;-68
2021/09/05 12:27:25;;;;;;;1.60;0.93;;;15.90;99.90;;;;;;4973957;28;20070;-72
2021/09/05 12:29:53;;;;;;;1.52;0.63;;;15.90;99.90;;;;;;4974080;28;20098;-65
2021/09/05 12:32:21;;;;;;;0.93;0.63;;;15.90;99.90;;;;;;4973919;28;20408;-68
2021/09/05 12:34:49;;;;;;;0.85;0.70;;;15.90;99.90;;;;;;4974004;28;20043;-70
2021/09/05 12:37:18;;;;;;;1.52;0.90;;;15.50;99.90;;;;;;4973642;28;20086;-70
2021/09/05 12:39:48;;;;;;;1.52;0.50;;;15.50;99.90;;;;;;4974123;28;20144;-68
2021/09/05 12:42:17;;;;;;;0.73;0.60;;;15.50;99.90;;;;;;4974101;28;20069;-67
2021/09/05 12:44:51;;;;;;;2.30;0.80;;;15.60;99.90;;;;;;4974306;28;20121;-67
2021/09/05 12:47:24;;;;;;;1.70;0.65;;;15.70;99.90;;;;;;4974120;28;20369;-67
2021/09/05 12:49:54;;;;;;;0.45;0.45;;;15.80;99.90;;;;;;4974091;28;20047;-68
2021/09/05 12:52:27;;;;;;;1.13;0.70;;;16.00;99.90;;;;;;4974150;28;20050;-68
2021/09/05 12:55:00;;;;;;;0.93;0.60;;;16.00;99.90;;;;;;4974378;28;20034;-66
2021/09/05 12:57:31;;;;;;;2.40;1.17;;;16.20;99.90;;;;;;4974006;28;20374;-66
2021/09/05 12:59:58;;;;;;;1.67;1.55;;;16.20;99.90;;;;;;4973911;28;20042;-68
2021/09/05 13:02:28;;;;;;;1.85;0.60;;;16.30;99.90;;;;;;4973913;28;20183;-68
2021/09/05 13:04:56;;;;;;;4.25;0.55;;;16.40;99.90;;;;;;4974034;28;20213;-66
2021/09/05 13:07:24;;;;;;;0.77;0.52;;;16.30;99.90;;;;;;4973555;28;20101;-70
2021/09/05 13:09:54;;;;;;;0.90;0.60;;;16.50;99.90;;;;;;4974008;28;20107;-67
2021/09/05 13:12:23;;;;;;;1.10;0.45;;;16.40;99.90;;;;;;4973358;28;20481;-67
2021/09/05 13:14:50;;;;;;;1.63;0.40;;;16.50;99.90;;;;;;4973655;28;20474;-66
2021/09/05 13:17:18;;;;;;;1.08;0.70;;;16.60;99.90;;;;;;4973591;28;20043;-66
2021/09/05 13:19:45;;;;;;;1.60;0.75;;;16.70;99.90;;;;;;4973601;28;20047;-70